Time,TemperatureF,DewpointF,PressureIn,WindDirection,WindDirectionDegrees,WindSpeedMPH,WindSpeedGustMPH,Humidity,HourlyPrecipIn,Conditions,Clouds,dailyrainin,SoftwareType,DateUTC
2013-10-19 00:05:00,36.8,31.0,29.95,West,277,0.0,0.0,79,0.00,,,0.00,weatherlink.com 1.10,2013-10-19 05:05:00,
2013-10-19 00:20:00,37.3,31.0,29.95,West,269,0.0,4.0,78,0.00,,,0.00,weatherlink.com 1.10,2013-10-19 05:20:00,
2013-10-19 00:35:00,37.2,31.0,29.94,SW,226,3.0,4.0,79,0.00,,,0.00,weatherlink.com 1.10,2013-10-19 05:35:00,
2013-10-19 00:50:00,34.8,30.0,29.94,SW,222,3.0,5.0,84,0.00,,,0.00,weatherlink.com 1.10,2013-10-19 05:50:00,
2013-10-19 01:05:00,35.7,32.0,29.94,SW,230,8.0,11.0,85,0.00,,,0.00,weatherlink.com 1.10,2013-10-19 06:05:00,
2013-10-19 01:21:00,36.9,32.0,29.94,WSW,243,5.0,10.0,83,0.00,,,0.00,weatherlink.com 1.10,2013-10-19 06:21:00,
2013-10-19 01:36:00,36.2,32.0,29.93,SW,236,6.0,6.0,84,0.00,,,0.00,weatherlink.com 1.10,2013-10-19 06:36:00,
2013-10-19 01:51:00,35.4,32.0,29.93,SW,234,4.0,6.0,86,0.00,,,0.00,weatherlink.com 1.10,2013-10-19 06:51:00,
2013-10-19 02:06:00,34.3,31.0,29.93,SW,229,5.0,7.0,87,0.00,,,0.00,weatherlink.com 1.10,2013-10-19 07:06:00,
2013-10-19 02:21:00,32.8,30.0,29.93,SSW,211,5.0,6.0,90,0.00,,,0.00,weatherlink.com 1.10,2013-10-19 07:21:00,
2013-10-19 02:36:00,32.6,30.0,29.92,SW,227,4.0,5.0,91,0.00,,,0.00,weatherlink.com 1.10,2013-10-19 07:36:00,
2013-10-19 02:51:00,32.1,30.0,29.92,WSW,237,3.0,4.0,92,0.00,,,0.00,weatherlink.com 1.10,2013-10-19 07:51:00,
2013-10-19 03:21:00,31.0,29.0,29.91,SSW,212,4.0,5.0,93,0.00,,,0.00,weatherlink.com 1.10,2013-10-19 08:21:00,
2013-10-19 03:36:00,31.1,30.0,29.91,SSW,210,4.0,5.0,94,0.00,,,0.00,weatherlink.com 1.10,2013-10-19 08:36:00,
2013-10-19 03:51:00,31.3,30.0,29.90,SW,219,5.0,5.0,95,0.00,,,0.00,weatherlink.com 1.10,2013-10-19 08:51:00,
2013-10-19 04:06:00,32.0,31.0,29.90,SW,217,4.0,6.0,95,0.00,,,0.00,weatherlink.com 1.10,2013-10-19 09:06:00,
2013-10-19 04:21:00,32.9,32.0,29.89,WSW,239,4.0,5.0,95,0.00,,,0.00,weatherlink.com 1.10,2013-10-19 09:21:00,
2013-10-19 04:36:00,34.2,33.0,29.89,SSW,207,3.0,9.0,95,0.00,,,0.00,weatherlink.com 1.10,2013-10-19 09:36:00,
2013-10-19 04:51:00,34.3,33.0,29.89,SW,232,6.0,10.0,94,0.00,,,0.00,weatherlink.com 1.10,2013-10-19 09:51:00,
2013-10-19 05:06:00,34.0,33.0,29.88,SW,229,5.0,9.0,94,0.00,,,0.00,weatherlink.com 1.10,2013-10-19 10:06:00,
2013-10-19 05:21:00,33.5,32.0,29.88,SW,234,8.0,10.0,94,0.00,,,0.00,weatherlink.com 1.10,2013-10-19 10:21:00,
2013-10-19 05:36:00,33.1,32.0,29.88,SW,231,5.0,9.0,94,0.00,,,0.00,weatherlink.com 1.10,2013-10-19 10:36:00,
2013-10-19 05:51:00,32.0,31.0,29.88,SW,229,6.0,6.0,95,0.00,,,0.00,weatherlink.com 1.10,2013-10-19 10:51:00,
2013-10-19 06:06:00,31.6,30.0,29.87,SW,228,5.0,6.0,95,0.00,,,0.00,weatherlink.com 1.10,2013-10-19 11:06:00,
2013-10-19 06:21:00,31.1,30.0,29.87,SW,214,6.0,6.0,95,0.00,,,0.00,weatherlink.com 1.10,2013-10-19 11:21:00,
2013-10-19 06:36:00,30.5,29.0,29.87,SSW,206,4.0,6.0,95,0.00,,,0.00,weatherlink.com 1.10,2013-10-19 11:36:00,
2013-10-19 06:51:00,30.2,29.0,29.86,SSW,209,5.0,7.0,96,0.00,,,0.00,weatherlink.com 1.10,2013-10-19 11:51:00,
2013-10-19 07:06:00,30.0,29.0,29.86,SSW,209,6.0,7.0,96,0.00,,,0.00,weatherlink.com 1.10,2013-10-19 12:06:00,
2013-10-19 07:21:00,29.8,29.0,29.87,SW,222,6.0,7.0,96,0.00,,,0.00,weatherlink.com 1.10,2013-10-19 12:21:00,
2013-10-19 07:36:00,29.8,29.0,29.86,SW,224,7.0,8.0,96,0.00,,,0.00,weatherlink.com 1.10,2013-10-19 12:36:00,
2013-10-19 07:52:00,30.4,29.0,29.86,SSW,210,5.0,6.0,95,0.00,,,0.00,weatherlink.com 1.10,2013-10-19 12:52:00,
2013-10-19 08:07:00,31.3,30.0,29.86,SSW,210,5.0,8.0,95,0.00,,,0.00,weatherlink.com 1.10,2013-10-19 13:07:00,
2013-10-19 08:22:00,32.3,31.0,29.86,WSW,237,6.0,9.0,95,0.00,,,0.00,weatherlink.com 1.10,2013-10-19 13:22:00,
2013-10-19 08:37:00,33.1,32.0,29.86,SW,235,9.0,11.0,95,0.00,,,0.00,weatherlink.com 1.10,2013-10-19 13:37:00,
2013-10-19 08:52:00,34.0,33.0,29.85,SW,227,11.0,13.0,94,0.00,,,0.00,weatherlink.com 1.10,2013-10-19 13:52:00,
2013-10-19 09:07:00,34.9,33.0,29.86,SW,236,9.0,12.0,93,0.00,,,0.00,weatherlink.com 1.10,2013-10-19 14:07:00,
2013-10-19 09:22:00,36.0,34.0,29.85,SW,235,10.0,14.0,92,0.00,,,0.00,weatherlink.com 1.10,2013-10-19 14:22:00,
2013-10-19 09:38:00,36.7,34.0,29.85,WSW,243,11.0,15.0,90,0.00,,,0.00,weatherlink.com 1.10,2013-10-19 14:38:00,
2013-10-19 09:52:00,37.3,35.0,29.85,WSW,238,11.0,17.0,90,0.00,,,0.00,weatherlink.com 1.10,2013-10-19 14:52:00,
2013-10-19 10:07:00,38.5,35.0,29.85,West,260,6.0,16.0,88,0.00,,,0.00,weatherlink.com 1.10,2013-10-19 15:07:00,
2013-10-19 10:22:00,38.9,36.0,29.84,WSW,245,11.0,16.0,88,0.00,,,0.00,weatherlink.com 1.10,2013-10-19 15:22:00,
2013-10-19 10:37:00,39.4,36.0,29.84,West,269,6.0,18.0,88,0.00,,,0.00,weatherlink.com 1.10,2013-10-19 15:37:00,
2013-10-19 10:52:00,40.7,37.0,29.84,WSW,252,6.0,15.0,87,0.00,,,0.00,weatherlink.com 1.10,2013-10-19 15:52:00,
2013-10-19 11:07:00,42.1,38.0,29.83,NW,316,2.0,15.0,85,0.00,,,0.00,weatherlink.com 1.10,2013-10-19 16:07:00,
2013-10-19 11:22:00,43.0,38.0,29.83,SW,230,8.0,12.0,83,0.00,,,0.00,weatherlink.com 1.10,2013-10-19 16:22:00,
2013-10-19 11:37:00,43.9,38.0,29.82,West,278,7.0,10.0,81,0.00,,,0.00,weatherlink.com 1.10,2013-10-19 16:37:00,
2013-10-19 11:52:00,45.2,39.0,29.82,WSW,248,5.0,13.0,79,0.00,,,0.00,weatherlink.com 1.10,2013-10-19 16:52:00,
2013-10-19 12:07:00,46.9,39.0,29.82,West,271,5.0,14.0,75,0.00,,,0.00,weatherlink.com 1.10,2013-10-19 17:07:00,
2013-10-19 12:22:00,47.3,40.0,29.81,WSW,252,7.0,14.0,75,0.00,,,0.00,weatherlink.com 1.10,2013-10-19 17:22:00,
2013-10-19 12:37:00,47.9,39.0,29.81,West,277,5.0,18.0,71,0.00,,,0.00,weatherlink.com 1.10,2013-10-19 17:37:00,
2013-10-19 12:52:00,48.6,39.0,29.80,West,273,7.0,20.0,69,0.00,,,0.00,weatherlink.com 1.10,2013-10-19 17:52:00,
2013-10-19 13:07:00,48.5,40.0,29.80,WSW,257,14.0,21.0,73,0.00,,,0.00,weatherlink.com 1.10,2013-10-19 18:07:00,
2013-10-19 13:22:00,48.0,39.0,29.79,WSW,238,12.0,23.0,72,0.00,,,0.00,weatherlink.com 1.10,2013-10-19 18:22:00,
2013-10-19 13:37:00,47.8,40.0,29.79,WSW,243,10.0,15.0,75,0.00,,,0.00,weatherlink.com 1.10,2013-10-19 18:37:00,
2013-10-19 13:52:00,49.0,40.0,29.78,WNW,302,3.0,11.0,72,0.00,,,0.00,weatherlink.com 1.10,2013-10-19 18:52:00,
2013-10-19 14:08:00,48.9,39.0,29.79,WNW,286,8.0,10.0,70,0.00,,,0.00,weatherlink.com 1.10,2013-10-19 19:08:00,
2013-10-19 14:23:00,44.1,38.0,29.79,WNW,287,4.0,12.0,79,0.03,,,0.03,weatherlink.com 1.10,2013-10-19 19:23:00,
2013-10-19 14:38:00,46.1,40.0,29.79,SW,234,2.0,8.0,79,0.03,,,0.03,weatherlink.com 1.10,2013-10-19 19:38:00,
2013-10-19 14:53:00,46.2,40.0,29.80,NW,315,13.0,17.0,79,0.03,,,0.03,weatherlink.com 1.10,2013-10-19 19:53:00,
2013-10-19 15:08:00,46.7,41.0,29.80,NW,305,4.0,8.0,80,0.03,,,0.03,weatherlink.com 1.10,2013-10-19 20:08:00,
2013-10-19 15:23:00,46.8,39.0,29.80,WNW,298,7.0,13.0,75,0.00,,,0.03,weatherlink.com 1.10,2013-10-19 20:23:00,
2013-10-19 15:38:00,48.2,41.0,29.81,WNW,285,3.0,7.0,75,0.00,,,0.03,weatherlink.com 1.10,2013-10-19 20:38:00,
2013-10-19 15:53:00,49.3,40.0,29.80,WNW,292,4.0,6.0,70,0.00,,,0.03,weatherlink.com 1.10,2013-10-19 20:53:00,
2013-10-19 16:08:00,49.2,40.0,29.81,NW,304,2.0,8.0,70,0.00,,,0.03,weatherlink.com 1.10,2013-10-19 21:08:00,
2013-10-19 16:23:00,50.3,40.0,29.81,West,279,3.0,9.0,67,0.00,,,0.03,weatherlink.com 1.10,2013-10-19 21:23:00,
2013-10-19 16:38:00,51.6,38.0,29.81,WNW,291,5.0,8.0,60,0.00,,,0.03,weatherlink.com 1.10,2013-10-19 21:38:00,
2013-10-19 16:53:00,50.2,38.0,29.81,NW,311,4.0,8.0,63,0.00,,,0.03,weatherlink.com 1.10,2013-10-19 21:53:00,
2013-10-19 17:08:00,49.9,36.0,29.82,WNW,299,5.0,9.0,59,0.00,,,0.03,weatherlink.com 1.10,2013-10-19 22:08:00,
2013-10-19 17:23:00,51.1,36.0,29.82,WNW,300,7.0,11.0,56,0.00,,,0.03,weatherlink.com 1.10,2013-10-19 22:23:00,
2013-10-19 17:38:00,50.2,35.0,29.82,WNW,286,6.0,17.0,56,0.00,,,0.03,weatherlink.com 1.10,2013-10-19 22:38:00,
2013-10-19 17:53:00,47.9,35.0,29.83,NW,324,13.0,14.0,61,0.00,,,0.03,weatherlink.com 1.10,2013-10-19 22:53:00,
2013-10-19 18:08:00,46.7,34.0,29.83,NW,309,5.0,12.0,62,0.00,,,0.03,weatherlink.com 1.10,2013-10-19 23:08:00,
2013-10-19 18:23:00,45.3,34.0,29.84,NW,320,9.0,15.0,64,0.00,,,0.03,weatherlink.com 1.10,2013-10-19 23:23:00,
2013-10-19 18:38:00,43.2,31.0,29.85,NNW,333,5.0,10.0,63,0.00,,,0.03,weatherlink.com 1.10,2013-10-19 23:38:00,
2013-10-19 18:53:00,41.5,31.0,29.86,NW,326,6.0,7.0,67,0.00,,,0.03,weatherlink.com 1.10,2013-10-19 23:53:00,
2013-10-19 19:08:00,40.4,30.0,29.86,NNW,330,6.0,8.0,67,0.00,,,0.03,weatherlink.com 1.10,2013-10-20 00:08:00,
2013-10-19 19:23:00,39.3,30.0,29.87,NW,321,5.0,6.0,69,0.00,,,0.03,weatherlink.com 1.10,2013-10-20 00:23:00,
2013-10-19 19:38:00,38.3,29.0,29.88,NW,323,3.0,6.0,70,0.00,,,0.03,weatherlink.com 1.10,2013-10-20 00:38:00,
2013-10-19 19:53:00,37.0,29.0,29.88,NNW,334,4.0,6.0,72,0.00,,,0.03,weatherlink.com 1.10,2013-10-20 00:53:00,
2013-10-19 20:08:00,36.4,29.0,29.88,NNW,330,5.0,7.0,73,0.00,,,0.03,weatherlink.com 1.10,2013-10-20 01:08:00,
2013-10-19 20:23:00,36.4,28.0,29.89,NNW,330,4.0,7.0,72,0.00,,,0.03,weatherlink.com 1.10,2013-10-20 01:23:00,
2013-10-19 20:38:00,35.9,28.0,29.89,NNW,336,5.0,6.0,73,0.00,,,0.03,weatherlink.com 1.10,2013-10-20 01:38:00,
2013-10-19 20:53:00,35.3,28.0,29.89,NW,326,3.0,6.0,74,0.00,,,0.03,weatherlink.com 1.10,2013-10-20 01:53:00,
2013-10-19 21:08:00,35.3,27.0,29.89,NNW,338,3.0,6.0,73,0.00,,,0.03,weatherlink.com 1.10,2013-10-20 02:08:00,
2013-10-19 21:23:00,34.1,27.0,29.89,North,350,4.0,5.0,76,0.00,,,0.03,weatherlink.com 1.10,2013-10-20 02:23:00,
2013-10-19 21:38:00,33.4,27.0,29.90,North,2,2.0,4.0,77,0.00,,,0.03,weatherlink.com 1.10,2013-10-20 02:38:00,
2013-10-19 21:53:00,32.0,27.0,29.89,NE,37,2.0,3.0,80,0.00,,,0.03,weatherlink.com 1.10,2013-10-20 02:53:00,
2013-10-19 22:08:00,30.8,27.0,29.89,NE,44,2.0,2.0,85,0.00,,,0.03,weatherlink.com 1.10,2013-10-20 03:08:00,
2013-10-19 22:23:00,31.4,27.0,29.89,NE,44,2.0,2.0,84,0.00,,,0.03,weatherlink.com 1.10,2013-10-20 03:23:00,
2013-10-19 22:38:00,33.5,27.0,29.89,NE,43,2.0,2.0,78,0.00,,,0.03,weatherlink.com 1.10,2013-10-20 03:38:00,
2013-10-19 22:53:00,33.4,27.0,29.89,NE,44,3.0,3.0,76,0.00,,,0.03,weatherlink.com 1.10,2013-10-20 03:53:00,
2013-10-19 23:08:00,33.6,27.0,29.89,NE,44,0.0,1.0,76,0.00,,,0.03,weatherlink.com 1.10,2013-10-20 04:08:00,
2013-10-19 23:23:00,31.4,26.0,29.89,SSW,210,1.0,1.0,81,0.00,,,0.03,weatherlink.com 1.10,2013-10-20 04:23:00,
2013-10-19 23:38:00,29.6,26.0,29.89,South,191,0.0,2.0,87,0.00,,,0.03,weatherlink.com 1.10,2013-10-20 04:38:00,
2013-10-19 23:53:00,30.0,26.0,29.90,SW,217,0.0,3.0,86,0.00,,,0.03,weatherlink.com 1.10,2013-10-20 04:53:00,